Pes Gamar Primero — EA5040 — position and weather

sailwx.info

Track history (hours):
 
Tides and Currents Weather Stations Pressure Air Temp Water Temp Dewpoint Dewpoint Depression Visibility Wind Speed Wind Dir Waves Ship Positions

Pes Gamar Primero

Last reported at 2018-Jul-19 08:50 UTC. Time now 2018-Jul-20 12:17 UTC.
Position N 39°12' E 001°28'.

Length 25 m.

Type: Fishing. MMSI: 224140280.

Date/timePositionNaut miles runAvg speedWind from/ knotsBaromVisibWave heightAir tempDewpointWater temp
2018-Jul-19 08:50N 39°12' E 001°28'5 2.6
2018-Jul-19 06:51N 39°11' E 001°22'  
2018-Jul-17 02:50N 39°03' E 000°58'510.1
2018-Jul-17 02:22N 38°60' E 000°53'410.2
2018-Jul-17 02:00N 38°58' E 000°49'710.3
2018-Jul-17 01:21N 38°54' E 000°41'410.4
2018-Jul-17 01:01N 38°53' E 000°38'510.6
2018-Jul-17 00:30N 38°50' E 000°32'1010.6
2018-Jul-16 23:31N 38°44' E 000°20'  
2018-Jul-10 15:27N 39°01' E 001°15'610.6
2018-Jul-10 14:54N 39°07' E 001°12'9 0.5
2018-Jul-09 18:45N 38°59' E 001°18'0 0.0
2018-Jul-09 18:17N 38°59' E 001°18'0 0.0
2018-Jul-09 17:58N 38°59' E 001°18'0 0.0
2018-Jul-09 17:28N 38°59' E 001°18'0 0.0
2018-Jul-09 16:48N 38°59' E 001°18'1 0.8
2018-Jul-09 15:51N 38°59' E 001°17'510.5
2018-Jul-09 15:25N 39°03' E 001°15'510.4
2018-Jul-09 14:59N 39°07' E 001°12'4 2.3
2018-Jul-09 13:06N 39°12' E 001°13'0 3.1
2018-Jul-09 12:59N 39°12' E 001°14'2 3.1
2018-Jul-09 12:30N 39°13' E 001°15'2 3.0
2018-Jul-09 12:00N 39°13' E 001°17'3 3.0
2018-Jul-09 11:02N 39°14' E 001°21'0 3.0
2018-Jul-09 11:00N 39°14' E 001°21'2 3.0
2018-Jul-09 10:29N 39°14' E 001°23'3 3.2
2018-Jul-09 09:35N 39°15' E 001°27'  
Track history (hours):
 
Tides and Currents Weather Stations Pressure Air Temp Water Temp Dewpoint Dewpoint Depression Visibility Wind Speed Wind Dir Waves Ship Positions

Pes Gamar Primero

Last reported at 2018-Jul-19 08:50 UTC. Time now 2018-Jul-20 12:17 UTC.
Position N 39°12' E 001°28'.

Length 25 m.

Type: Fishing. MMSI: 224140280.

Date/timePositionNaut miles runAvg speedWind from/ knotsBaromVisibWave heightAir tempDewpointWater temp
2018-Jul-19 08:50N 39°12' E 001°28'5 2.6
2018-Jul-19 06:51N 39°11' E 001°22'  
2018-Jul-17 02:50N 39°03' E 000°58'510.1
2018-Jul-17 02:22N 38°60' E 000°53'410.2
2018-Jul-17 02:00N 38°58' E 000°49'710.3
2018-Jul-17 01:21N 38°54' E 000°41'410.4
2018-Jul-17 01:01N 38°53' E 000°38'510.6
2018-Jul-17 00:30N 38°50' E 000°32'1010.6
2018-Jul-16 23:31N 38°44' E 000°20'  
2018-Jul-10 15:27N 39°01' E 001°15'610.6
2018-Jul-10 14:54N 39°07' E 001°12'9 0.5
2018-Jul-09 18:45N 38°59' E 001°18'0 0.0
2018-Jul-09 18:17N 38°59' E 001°18'0 0.0
2018-Jul-09 17:58N 38°59' E 001°18'0 0.0
2018-Jul-09 17:28N 38°59' E 001°18'0 0.0
2018-Jul-09 16:48N 38°59' E 001°18'1 0.8
2018-Jul-09 15:51N 38°59' E 001°17'510.5
2018-Jul-09 15:25N 39°03' E 001°15'510.4
2018-Jul-09 14:59N 39°07' E 001°12'4 2.3
2018-Jul-09 13:06N 39°12' E 001°13'0 3.1
2018-Jul-09 12:59N 39°12' E 001°14'2 3.1
2018-Jul-09 12:30N 39°13' E 001°15'2 3.0
2018-Jul-09 12:00N 39°13' E 001°17'3 3.0
2018-Jul-09 11:02N 39°14' E 001°21'0 3.0
2018-Jul-09 11:00N 39°14' E 001°21'2 3.0
2018-Jul-09 10:29N 39°14' E 001°23'3 3.2
2018-Jul-09 09:35N 39°15' E 001°27'  

Dump ship's entire track history